createdAt,value
2022-07-30T00:00:28.991Z,12.40
2022-07-30T00:03:04.938Z,11.90
2022-07-30T00:05:33.462Z,11.00
2022-07-30T00:08:01.735Z,11.70
2022-07-30T00:10:30.021Z,11.50
2022-07-30T00:12:58.417Z,12.30
2022-07-30T00:15:26.750Z,12.10
2022-07-30T00:17:55.070Z,12.80
2022-07-30T00:20:23.551Z,11.90
2022-07-30T00:22:57.053Z,11.70
2022-07-30T00:25:25.459Z,10.40
2022-07-30T00:27:53.687Z,10.70
2022-07-30T00:30:22.682Z,9.80
2022-07-30T00:32:51.273Z,10.30
2022-07-30T00:35:19.674Z,10.40
2022-07-30T00:37:47.959Z,11.60
2022-07-30T00:40:16.437Z,10.30
2022-07-30T00:42:46.955Z,10.20
2022-07-30T00:45:17.099Z,9.80
2022-07-30T00:47:45.582Z,9.10
2022-07-30T00:50:15.110Z,9.40
2022-07-30T00:52:44.200Z,9.70
2022-07-30T00:55:15.477Z,9.70
2022-07-30T00:57:44.820Z,9.10
2022-07-30T01:00:16.150Z,9.90
2022-07-30T01:02:45.106Z,9.60
2022-07-30T01:05:14.275Z,10.00
2022-07-30T01:07:43.519Z,10.70
2022-07-30T01:10:15.291Z,9.70
2022-07-30T01:12:44.508Z,9.10
2022-07-30T01:15:12.944Z,10.00
2022-07-30T01:17:41.455Z,10.60
2022-07-30T01:20:17.967Z,11.40
2022-07-30T01:22:55.290Z,11.60
2022-07-30T01:25:31.251Z,10.90
2022-07-30T01:28:14.155Z,11.00
2022-07-30T01:30:50.145Z,11.00
2022-07-30T01:33:21.939Z,9.80
2022-07-30T01:35:52.201Z,10.90
2022-07-30T01:38:23.231Z,9.90
2022-07-30T01:40:54.141Z,11.30
2022-07-30T01:43:24.930Z,10.00
2022-07-30T01:45:54.240Z,11.10
2022-07-30T01:48:25.571Z,9.70
2022-07-30T01:50:58.466Z,11.20
2022-07-30T01:53:30.562Z,10.00
2022-07-30T01:56:00.770Z,10.70
2022-07-30T01:58:35.677Z,10.10
2022-07-30T02:01:20.304Z,10.70
2022-07-30T02:03:48.836Z,11.40
2022-07-30T02:06:23.506Z,10.40
2022-07-30T02:11:43.536Z,10.80
2022-07-30T02:14:24.017Z,9.50
2022-07-30T02:16:59.433Z,10.10
2022-07-30T02:19:38.064Z,10.80
2022-07-30T02:22:15.276Z,10.60
2022-07-30T02:24:44.641Z,10.80
2022-07-30T02:27:41.110Z,10.20
2022-07-30T02:30:10.883Z,10.70
2022-07-30T02:32:42.682Z,11.50
2022-07-30T02:35:18.997Z,11.30
2022-07-30T02:37:53.495Z,11.10
2022-07-30T02:42:53.627Z,11.60
2022-07-30T02:45:25.939Z,12.00
2022-07-30T02:48:09.283Z,10.70
2022-07-30T02:53:12.347Z,12.90
2022-07-30T02:55:43.751Z,13.30
2022-07-30T02:58:17.508Z,12.80
2022-07-30T03:00:46.605Z,11.10
2022-07-30T03:03:16.792Z,12.00
2022-07-30T03:05:45.769Z,11.50
2022-07-30T03:08:19.285Z,11.90
2022-07-30T03:10:50.328Z,12.40
2022-07-30T03:13:21.182Z,12.40
2022-07-30T03:15:51.917Z,13.60
2022-07-30T03:18:23.949Z,15.00
2022-07-30T03:20:56.623Z,13.50
2022-07-30T03:23:26.146Z,14.50
2022-07-30T03:26:01.962Z,14.70
2022-07-30T03:28:37.805Z,14.50
2022-07-30T03:31:07.799Z,15.30
2022-07-30T03:33:38.136Z,14.10
2022-07-30T03:36:10.044Z,14.60
2022-07-30T03:38:41.173Z,15.40
2022-07-30T03:41:11.407Z,14.60
2022-07-30T03:43:41.122Z,14.00
2022-07-30T03:46:10.959Z,13.30
2022-07-30T03:48:42.838Z,13.60
2022-07-30T03:51:11.913Z,14.20
2022-07-30T03:53:42.337Z,14.40
2022-07-30T03:56:29.491Z,13.70
2022-07-30T03:59:09.005Z,12.90
2022-07-30T04:01:39.895Z,12.50
2022-07-30T04:04:13.367Z,14.50
2022-07-30T04:06:43.145Z,11.80
2022-07-30T04:09:13.103Z,12.00
2022-07-30T04:11:42.055Z,12.60
2022-07-30T04:14:17.931Z,12.30
2022-07-30T04:16:54.466Z,11.50
2022-07-30T04:19:57.915Z,9.50
2022-07-30T04:22:36.281Z,9.90
2022-07-30T04:25:07.058Z,10.50
2022-07-30T04:27:36.849Z,9.80
2022-07-30T04:30:06.414Z,9.10
2022-07-30T04:32:35.680Z,8.90
2022-07-30T04:35:49.688Z,8.70
2022-07-30T04:38:27.082Z,7.50
2022-07-30T04:40:56.730Z,7.70
2022-07-30T04:43:25.162Z,7.00
2022-07-30T04:45:53.530Z,6.90
2022-07-30T04:48:22.310Z,7.30
2022-07-30T04:51:12.208Z,7.10
2022-07-30T04:53:42.865Z,6.80
2022-07-30T04:56:14.533Z,6.90
2022-07-30T04:58:44.939Z,6.80
2022-07-30T05:01:18.930Z,6.40
2022-07-30T05:03:48.291Z,6.90
2022-07-30T05:06:17.726Z,7.10
2022-07-30T05:08:46.265Z,6.60
2022-07-30T05:11:15.033Z,6.00
2022-07-30T05:13:46.293Z,6.90
2022-07-30T05:16:16.162Z,6.80
2022-07-30T05:18:45.833Z,6.60
2022-07-30T05:21:14.596Z,7.00
2022-07-30T05:23:50.560Z,6.70
2022-07-30T05:26:38.320Z,7.00
2022-07-30T05:29:08.248Z,7.10
2022-07-30T05:31:53.353Z,7.20
2022-07-30T05:34:22.529Z,7.10
2022-07-30T05:36:51.260Z,7.20
2022-07-30T05:39:19.830Z,7.80
2022-07-30T05:41:55.273Z,7.20
2022-07-30T05:44:43.749Z,6.70
2022-07-30T05:47:12.663Z,6.50
2022-07-30T05:49:41.190Z,7.20
2022-07-30T05:52:13.805Z,7.20
2022-07-30T05:54:42.701Z,7.70
2022-07-30T05:57:26.206Z,6.90
2022-07-30T05:59:54.556Z,6.90
2022-07-30T06:02:32.654Z,7.00
2022-07-30T06:05:23.954Z,7.70
2022-07-30T06:07:52.471Z,7.20
2022-07-30T06:10:22.799Z,6.40
2022-07-30T06:12:51.111Z,7.00
2022-07-30T06:15:23.257Z,6.90
2022-07-30T06:17:58.315Z,6.60
2022-07-30T06:21:03.242Z,6.50
2022-07-30T06:23:57.741Z,6.30
2022-07-30T06:26:37.817Z,6.70
2022-07-30T06:29:06.479Z,6.30
2022-07-30T06:31:34.842Z,6.70
2022-07-30T06:34:03.279Z,6.20
2022-07-30T06:36:36.443Z,5.90
2022-07-30T06:39:08.922Z,6.10
2022-07-30T06:41:55.928Z,6.20
2022-07-30T06:44:27.948Z,6.90
2022-07-30T06:47:21.778Z,6.00
2022-07-30T06:49:50.093Z,6.50
2022-07-30T06:52:18.921Z,5.80
2022-07-30T06:54:51.774Z,6.40
2022-07-30T06:57:40.532Z,5.40
2022-07-30T07:00:21.132Z,6.00
2022-07-30T07:02:49.466Z,6.10
2022-07-30T07:05:29.100Z,5.80
2022-07-30T07:07:59.665Z,6.10
2022-07-30T07:10:32.561Z,5.70
2022-07-30T07:13:23.882Z,5.80
2022-07-30T07:15:52.331Z,5.80
2022-07-30T07:18:48.470Z,5.10
2022-07-30T07:23:46.021Z,5.20
2022-07-30T07:26:34.599Z,4.50
2022-07-30T07:29:05.331Z,5.50
2022-07-30T07:32:04.568Z,5.00
2022-07-30T07:34:23.339Z,4.80
2022-07-30T07:36:51.647Z,4.90
2022-07-30T07:39:20.029Z,5.10
2022-07-30T07:41:49.536Z,4.80
2022-07-30T07:44:22.266Z,4.80
2022-07-30T07:46:50.578Z,5.70
2022-07-30T07:49:18.897Z,5.30
2022-07-30T07:51:54.030Z,5.40
2022-07-30T07:54:23.304Z,4.90
2022-07-30T07:56:56.599Z,4.90
2022-07-30T07:59:39.756Z,5.20
2022-07-30T08:02:14.644Z,5.20
2022-07-30T08:04:48.686Z,4.90
2022-07-30T08:07:52.303Z,5.80
2022-07-30T08:10:23.528Z,5.40
2022-07-30T08:13:48.747Z,5.20
2022-07-30T08:16:18.445Z,5.40
2022-07-30T08:19:10.102Z,5.40
2022-07-30T08:21:41.049Z,5.20
2022-07-30T08:24:09.564Z,5.90
2022-07-30T08:26:38.086Z,5.00
2022-07-30T08:29:06.710Z,5.60
2022-07-30T08:31:35.173Z,5.00
2022-07-30T08:34:03.527Z,5.70
2022-07-30T08:36:31.983Z,5.20
2022-07-30T08:39:00.490Z,5.60
2022-07-30T08:41:29.342Z,5.20
2022-07-30T08:44:00.822Z,5.50
2022-07-30T08:46:32.303Z,5.70
2022-07-30T08:49:11.152Z,5.50
2022-07-30T08:51:40.466Z,6.30
2022-07-30T08:54:27.636Z,5.70
2022-07-30T08:56:56.062Z,5.80
2022-07-30T08:59:24.843Z,5.80
2022-07-30T09:02:13.542Z,6.30
2022-07-30T09:04:55.061Z,6.20
2022-07-30T09:07:23.589Z,5.90
2022-07-30T09:09:52.075Z,6.00
2022-07-30T09:12:37.453Z,5.40
2022-07-30T09:15:11.431Z,6.00
2022-07-30T09:17:58.607Z,6.50
2022-07-30T09:20:30.976Z,6.70
2022-07-30T09:23:05.267Z,6.50
2022-07-30T09:25:52.549Z,6.90
2022-07-30T09:28:38.742Z,6.10
2022-07-30T09:31:53.450Z,7.40
2022-07-30T09:34:47.854Z,6.80
2022-07-30T09:37:39.889Z,6.50
2022-07-30T09:40:42.955Z,8.90
2022-07-30T09:43:30.363Z,7.50
2022-07-30T09:46:10.262Z,6.80
2022-07-30T09:48:39.462Z,6.70
2022-07-30T09:51:15.601Z,6.50
2022-07-30T09:53:56.120Z,7.10
2022-07-30T09:56:30.037Z,6.60
2022-07-30T09:59:00.516Z,7.50
2022-07-30T10:01:53.859Z,7.20
2022-07-30T10:04:45.085Z,6.70
2022-07-30T10:07:25.445Z,6.80
2022-07-30T10:10:00.570Z,6.60
2022-07-30T10:12:30.045Z,6.80
2022-07-30T10:15:02.115Z,7.20
2022-07-30T10:17:36.948Z,7.00
2022-07-30T10:20:28.860Z,6.30
2022-07-30T10:23:30.071Z,7.20
2022-07-30T10:26:40.327Z,6.80
2022-07-30T10:29:33.772Z,7.30
2022-07-30T10:32:03.177Z,6.90
2022-07-30T10:34:34.534Z,6.80
2022-07-30T10:37:07.480Z,7.40
2022-07-30T10:39:42.000Z,7.30
2022-07-30T10:43:01.114Z,7.30
2022-07-30T10:45:49.819Z,7.00
2022-07-30T10:48:20.292Z,7.20
2022-07-30T10:50:57.117Z,7.00
2022-07-30T10:53:46.907Z,6.50
2022-07-30T10:56:25.398Z,6.20
2022-07-30T10:59:14.932Z,6.40
2022-07-30T11:01:53.552Z,6.80
2022-07-30T11:04:29.753Z,5.90
2022-07-30T11:07:23.633Z,5.60
2022-07-30T11:10:08.909Z,6.00
2022-07-30T11:12:45.486Z,6.00
2022-07-30T11:15:18.740Z,5.80
2022-07-30T11:18:12.524Z,5.90
2022-07-30T11:20:48.306Z,6.50
2022-07-30T11:23:20.391Z,6.30
2022-07-30T11:25:51.102Z,5.80
2022-07-30T11:28:40.580Z,6.20
2022-07-30T11:31:36.875Z,6.70
2022-07-30T11:34:24.205Z,5.70
2022-07-30T11:37:18.132Z,5.90
2022-07-30T11:39:56.099Z,6.50
2022-07-30T11:42:31.583Z,6.00
2022-07-30T11:45:18.701Z,5.50
2022-07-30T11:47:51.795Z,5.70
2022-07-30T11:50:24.349Z,6.10
2022-07-30T11:52:54.929Z,6.80
2022-07-30T11:55:24.687Z,6.00
2022-07-30T11:57:55.373Z,6.80
2022-07-30T12:01:15.037Z,6.10
2022-07-30T12:03:44.847Z,5.90
2022-07-30T12:06:21.945Z,6.10
2022-07-30T12:08:58.299Z,5.80
2022-07-30T12:11:35.335Z,6.00
2022-07-30T12:14:04.847Z,5.90
2022-07-30T12:16:34.756Z,6.00
2022-07-30T12:19:06.672Z,6.50
2022-07-30T12:21:38.096Z,5.80
2022-07-30T12:24:07.698Z,5.90
2022-07-30T12:26:36.543Z,5.80
2022-07-30T12:29:13.252Z,6.00
2022-07-30T12:31:42.318Z,5.50
2022-07-30T12:34:23.953Z,5.60
2022-07-30T12:36:53.150Z,6.10
2022-07-30T12:39:27.461Z,6.20
2022-07-30T12:41:58.602Z,6.20
2022-07-30T12:44:41.824Z,5.90
2022-07-30T12:47:30.256Z,6.40
2022-07-30T12:50:01.562Z,6.10
2022-07-30T12:52:32.707Z,6.20
2022-07-30T12:55:07.215Z,6.40
2022-07-30T12:57:57.406Z,6.20
2022-07-30T13:00:44.286Z,5.80
2022-07-30T13:03:22.577Z,6.60
2022-07-30T13:05:55.238Z,6.00
2022-07-30T13:08:46.044Z,6.20
2022-07-30T13:11:15.322Z,6.30
2022-07-30T13:13:43.789Z,6.40
2022-07-30T13:16:12.438Z,6.40
2022-07-30T13:18:41.344Z,6.20
2022-07-30T13:21:10.154Z,6.10
2022-07-30T13:23:40.448Z,6.30
2022-07-30T13:26:10.061Z,6.00
2022-07-30T13:28:38.935Z,6.30
2022-07-30T13:31:09.186Z,5.80
2022-07-30T13:33:38.749Z,6.00
2022-07-30T13:36:07.926Z,6.50
2022-07-30T13:38:36.470Z,6.40
2022-07-30T13:41:05.365Z,6.20
2022-07-30T13:43:34.207Z,6.20
2022-07-30T13:46:04.041Z,6.20
2022-07-30T13:48:33.801Z,6.10
2022-07-30T13:51:03.271Z,6.10
2022-07-30T13:53:32.089Z,8.40
2022-07-30T13:56:00.505Z,6.60
2022-07-30T13:58:31.816Z,6.90
2022-07-30T14:01:07.390Z,5.80
2022-07-30T14:03:36.034Z,6.20
2022-07-30T14:06:10.039Z,6.30
2022-07-30T14:08:39.897Z,6.10
2022-07-30T14:11:08.616Z,6.30
2022-07-30T14:13:36.914Z,5.70
2022-07-30T14:16:22.640Z,6.80
2022-07-30T14:18:55.700Z,6.30
2022-07-30T14:21:24.034Z,5.90
2022-07-30T14:23:52.350Z,6.00
2022-07-30T14:26:20.692Z,6.10
2022-07-30T14:28:49.525Z,6.10
2022-07-30T14:31:17.751Z,6.20
2022-07-30T14:33:46.215Z,6.50
2022-07-30T14:36:14.521Z,6.00
2022-07-30T14:38:42.873Z,6.40
2022-07-30T14:41:11.357Z,6.20
2022-07-30T14:43:39.599Z,6.00
2022-07-30T14:46:07.942Z,6.50
2022-07-30T14:48:36.242Z,6.10
2022-07-30T14:51:19.441Z,6.00
2022-07-30T14:53:52.825Z,6.20
2022-07-30T14:56:22.318Z,5.60
2022-07-30T14:58:51.043Z,6.40
2022-07-30T15:01:19.381Z,6.00
2022-07-30T15:03:47.998Z,6.10
2022-07-30T15:06:17.490Z,6.50
2022-07-30T15:08:46.641Z,5.90
2022-07-30T15:11:14.939Z,6.40
2022-07-30T15:13:50.307Z,7.10
2022-07-30T15:16:20.311Z,6.90
2022-07-30T15:18:48.619Z,7.30
2022-07-30T15:21:17.617Z,7.20
2022-07-30T15:23:45.877Z,6.70
2022-07-30T15:26:14.341Z,6.50
2022-07-30T15:28:42.583Z,7.30
2022-07-30T15:31:10.937Z,6.10
2022-07-30T15:33:43.239Z,5.80
2022-07-30T15:36:12.114Z,6.30
2022-07-30T15:38:40.529Z,9.70
2022-07-30T15:41:13.310Z,7.60
2022-07-30T15:43:42.270Z,8.20
2022-07-30T15:46:10.730Z,13.80
2022-07-30T15:48:39.035Z,14.10
2022-07-30T15:51:08.034Z,12.20
2022-07-30T15:53:36.517Z,7.50
2022-07-30T15:56:05.098Z,6.40
2022-07-30T15:58:33.768Z,6.00
2022-07-30T16:01:02.933Z,5.80
2022-07-30T16:03:31.370Z,4.00
2022-07-30T16:05:59.775Z,5.00
2022-07-30T16:08:28.054Z,4.80
2022-07-30T16:10:56.366Z,6.40
2022-07-30T16:13:24.671Z,6.40
2022-07-30T16:15:53.017Z,6.30
2022-07-30T16:18:21.281Z,7.80
2022-07-30T16:20:49.723Z,7.40
2022-07-30T16:23:21.300Z,8.00
2022-07-30T16:25:50.342Z,7.70
2022-07-30T16:28:18.842Z,9.10
2022-07-30T16:30:50.915Z,8.70
2022-07-30T16:33:20.714Z,10.40
2022-07-30T16:35:51.169Z,9.20
2022-07-30T16:38:21.160Z,10.30
2022-07-30T16:40:49.990Z,10.30
2022-07-30T16:43:19.703Z,11.30
2022-07-30T16:45:49.164Z,11.70
2022-07-30T16:48:17.546Z,13.30
2022-07-30T16:50:46.206Z,14.30
2022-07-30T16:53:14.912Z,15.10
2022-07-30T16:55:44.524Z,15.00
2022-07-30T16:58:12.810Z,13.50
2022-07-30T17:00:41.807Z,12.90
2022-07-30T17:03:10.156Z,12.40
2022-07-30T17:05:45.202Z,12.10
2022-07-30T17:08:14.498Z,12.40
2022-07-30T17:10:46.618Z,13.20
2022-07-30T17:13:16.776Z,13.90
2022-07-30T17:15:46.916Z,14.40
2022-07-30T17:18:16.600Z,13.40
2022-07-30T17:20:45.822Z,13.00
2022-07-30T17:23:14.116Z,12.70
2022-07-30T17:25:42.460Z,11.60
2022-07-30T17:28:11.154Z,12.10
2022-07-30T17:30:39.525Z,11.60
2022-07-30T17:33:07.906Z,12.40
2022-07-30T17:35:36.684Z,13.30
2022-07-30T17:38:04.942Z,12.90
2022-07-30T17:40:33.442Z,14.80
2022-07-30T17:43:05.701Z,13.20
2022-07-30T17:45:35.642Z,13.40
2022-07-30T17:48:05.384Z,13.20
2022-07-30T17:50:34.660Z,14.50
2022-07-30T17:53:05.347Z,15.60
2022-07-30T17:55:36.593Z,15.90
2022-07-30T17:58:05.390Z,16.70
2022-07-30T18:00:35.484Z,16.50
2022-07-30T18:03:04.716Z,17.20
2022-07-30T18:05:33.108Z,17.30
2022-07-30T18:08:01.350Z,17.90
2022-07-30T18:10:29.744Z,18.40
2022-07-30T18:12:58.085Z,18.80
2022-07-30T18:15:26.545Z,19.80
2022-07-30T18:17:54.854Z,19.00
2022-07-30T18:20:23.203Z,18.80
2022-07-30T18:22:51.721Z,19.70
2022-07-30T18:25:20.308Z,18.90
2022-07-30T18:27:52.602Z,20.60
2022-07-30T18:30:20.970Z,21.10
2022-07-30T18:32:49.766Z,21.20
2022-07-30T18:35:18.227Z,22.30
2022-07-30T18:37:46.728Z,21.90
2022-07-30T18:40:23.494Z,20.60
2022-07-30T18:42:52.782Z,22.20
2022-07-30T18:45:21.392Z,21.40
2022-07-30T18:47:49.651Z,19.60
2022-07-30T18:50:18.691Z,17.50
2022-07-30T18:52:47.765Z,14.30
2022-07-30T18:55:17.443Z,12.80
2022-07-30T18:57:45.830Z,11.20
2022-07-30T19:00:34.595Z,11.70
2022-07-30T19:03:04.237Z,10.50
2022-07-30T19:05:32.495Z,9.40
2022-07-30T19:08:03.942Z,8.50
2022-07-30T19:10:32.800Z,7.50
2022-07-30T19:13:02.073Z,7.50
2022-07-30T19:15:30.390Z,7.10
2022-07-30T19:17:59.393Z,7.20
2022-07-30T19:20:28.067Z,6.50
2022-07-30T19:23:07.762Z,5.60
2022-07-30T19:25:37.178Z,5.20
2022-07-30T19:28:05.763Z,4.60
2022-07-30T19:30:34.710Z,4.80
2022-07-30T19:33:12.644Z,4.90
2022-07-30T19:35:43.850Z,5.50
2022-07-30T19:38:21.412Z,4.50
2022-07-30T19:40:50.609Z,4.70
2022-07-30T19:46:07.719Z,5.20
2022-07-30T19:48:37.504Z,4.70
2022-07-30T19:51:07.032Z,4.50
2022-07-30T19:53:49.228Z,4.10
2022-07-30T19:56:17.598Z,4.10
2022-07-30T19:58:49.408Z,4.20
2022-07-30T20:01:19.279Z,4.40
2022-07-30T20:03:51.390Z,4.00
2022-07-30T20:06:19.822Z,4.20
2022-07-30T20:08:49.794Z,4.30
2022-07-30T20:11:35.037Z,4.10
2022-07-30T20:14:05.105Z,4.40
2022-07-30T20:16:36.322Z,4.50
2022-07-30T20:19:05.139Z,5.00
2022-07-30T20:21:56.643Z,4.30
2022-07-30T20:24:22.156Z,4.80
2022-07-30T20:26:50.665Z,5.00
2022-07-30T20:29:20.590Z,5.10
2022-07-30T20:31:49.928Z,5.20
2022-07-30T20:34:23.380Z,4.90
2022-07-30T20:36:52.055Z,5.10
2022-07-30T20:39:23.774Z,5.60
2022-07-30T20:42:08.095Z,5.50
2022-07-30T20:44:38.809Z,5.70
2022-07-30T20:49:56.526Z,6.20
2022-07-30T20:52:24.895Z,6.60
2022-07-30T20:54:53.174Z,7.10
2022-07-30T20:57:44.385Z,6.60
2022-07-30T21:00:10.730Z,7.00
2022-07-30T21:02:40.860Z,7.30
2022-07-30T21:05:09.713Z,6.50
2022-07-30T21:07:42.290Z,7.00
2022-07-30T21:10:13.057Z,7.70
2022-07-30T21:12:44.625Z,7.60
2022-07-30T21:15:23.781Z,8.20
2022-07-30T21:17:52.747Z,8.30
2022-07-30T21:20:27.535Z,8.10
2022-07-30T21:23:03.328Z,8.10
2022-07-30T21:25:32.467Z,8.40
2022-07-30T21:28:03.005Z,8.20
2022-07-30T21:30:32.748Z,8.30
2022-07-30T21:33:01.207Z,8.40
2022-07-30T21:35:32.247Z,8.00
2022-07-30T21:38:00.623Z,7.50
2022-07-30T21:40:29.619Z,7.60
2022-07-30T21:42:57.930Z,7.40
2022-07-30T21:45:26.993Z,7.20
2022-07-30T21:48:07.522Z,7.30
2022-07-30T21:50:38.197Z,8.60
2022-07-30T21:53:06.373Z,8.40
2022-07-30T21:55:52.445Z,8.40
2022-07-30T21:58:25.782Z,9.20
2022-07-30T22:00:55.695Z,9.50
2022-07-30T22:06:12.893Z,9.90
2022-07-30T22:08:41.390Z,9.50
2022-07-30T22:11:18.966Z,9.80
2022-07-30T22:13:51.412Z,11.20
2022-07-30T22:16:22.413Z,11.70
2022-07-30T22:18:51.563Z,11.70
2022-07-30T22:21:20.574Z,12.80
2022-07-30T22:23:54.413Z,12.40
2022-07-30T22:26:28.234Z,13.50
2022-07-30T22:28:56.955Z,13.40
2022-07-30T22:31:26.789Z,12.60
2022-07-30T22:34:11.491Z,14.20
2022-07-30T22:36:39.989Z,14.30
2022-07-30T22:39:08.974Z,15.70
2022-07-30T22:41:56.581Z,15.60
2022-07-30T22:44:25.523Z,16.50
2022-07-30T22:46:56.115Z,15.90
2022-07-30T22:49:50.310Z,15.90
2022-07-30T22:52:24.511Z,16.30
2022-07-30T22:54:54.928Z,16.50
2022-07-30T22:57:23.493Z,16.20
2022-07-30T23:00:00.013Z,15.80
2022-07-30T23:02:29.061Z,14.60
2022-07-30T23:04:57.369Z,13.80
2022-07-30T23:07:34.115Z,14.80
2022-07-30T23:10:17.237Z,14.60
2022-07-30T23:12:17.566Z,4.60
2022-07-30T23:12:18.909Z,6.20
2022-07-30T23:12:28.191Z,9.40
2022-07-30T23:12:51.887Z,15.70
2022-07-30T23:15:20.531Z,16.90
2022-07-30T23:17:48.886Z,17.90
2022-07-30T23:20:20.657Z,17.60
2022-07-30T23:22:49.774Z,18.10
2022-07-30T23:25:18.564Z,17.00
2022-07-30T23:27:46.941Z,16.90
2022-07-30T23:30:15.521Z,16.70
2022-07-30T23:32:43.879Z,16.10
2022-07-30T23:35:12.658Z,15.90
2022-07-30T23:37:48.320Z,14.60
2022-07-30T23:40:18.823Z,14.80
2022-07-30T23:42:50.247Z,15.30
2022-07-30T23:45:18.885Z,13.90
2022-07-30T23:47:51.168Z,16.00
2022-07-30T23:50:32.477Z,15.10
2022-07-30T23:53:02.398Z,15.00
2022-07-30T23:55:32.062Z,16.60
2022-07-30T23:58:00.520Z,16.70
